Time;durP1;ratioP1;P1;durP2;ratioP2;P2;SDS_P1;SDS_P2;PMS_P1;PMS_P2;Temp;Humidity;BMP_temperature;BMP_pressure;BME280_temperature;BME280_humidity;BME280_pressure;Samples;Min_cycle;Max_cycle;Signal;HPM_P1;HPM_P2
2023/12/30 00:03:57;;;;;;;0.63;0.60;;;;;;;8.94;100.00;99641.09;4990905;57;1136759;-78
2023/12/30 00:09:03;;;;;;;0.97;0.93;;;;;;;8.84;100.00;99634.45;5005903;57;1136701;-79
2023/12/30 00:14:08;;;;;;;0.53;0.47;;;;;;;8.76;100.00;99632.45;4904052;57;1136670;-77
2023/12/30 00:19:14;;;;;;;0.53;0.53;;;;;;;8.63;100.00;99628.33;4962723;58;1136625;-77
2023/12/30 00:24:20;;;;;;;2.10;0.50;;;;;;;8.57;100.00;99609.91;4982962;58;1136544;-75
2023/12/30 00:29:26;;;;;;;1.67;0.70;;;;;;;8.54;100.00;99606.23;4970673;57;1136843;-78
2023/12/30 00:34:36;;;;;;;1.30;0.60;;;;;;;8.56;100.00;99599.48;4984011;56;1136938;-81
2023/12/30 00:39:42;;;;;;;0.40;0.40;;;;;;;8.54;100.00;99593.06;5024485;56;1136984;-79
2023/12/30 00:44:47;;;;;;;3.77;0.80;;;;;;;8.54;100.00;99592.22;5043739;56;1137035;-80
2023/12/30 00:49:53;;;;;;;0.80;0.80;;;;;;;8.56;100.00;99583.67;5023638;56;1136548;-82
2023/12/30 00:54:58;;;;;;;1.10;0.90;;;;;;;8.54;100.00;99559.28;5024097;56;1136730;-80
2023/12/30 01:00:06;;;;;;;1.40;0.93;;;;;;;8.54;100.00;99559.28;5023020;56;1136802;-81
2023/12/30 01:05:12;;;;;;;2.30;1.17;;;;;;;8.58;100.00;99562.82;4980673;56;1136628;-79
2023/12/30 01:10:18;;;;;;;1.10;1.02;;;;;;;8.59;100.00;99558.39;4896433;56;1137084;-78
2023/12/30 01:15:24;;;;;;;1.95;1.15;;;;;;;8.61;100.00;99563.89;5043952;55;1136680;-79
2023/12/30 01:20:31;;;;;;;2.40;1.50;;;;;;;8.57;100.00;99549.28;4943533;57;1136537;-78
2023/12/30 01:25:38;;;;;;;2.98;1.40;;;;;;;8.54;100.00;99548.25;4939705;57;1136875;-79
2023/12/30 01:30:44;;;;;;;2.73;1.70;;;;;;;8.46;100.00;99538.34;5027089;57;1136894;-80
2023/12/30 01:35:49;;;;;;;2.10;1.47;;;;;;;8.42;100.00;99522.92;4997195;56;1136649;-75
2023/12/30 01:40:55;;;;;;;2.77;1.57;;;;;;;8.36;100.00;99526.92;4996189;58;1137076;-79
2023/12/30 01:46:08;;;;;;;3.13;1.53;;;;;;;8.33;100.00;99519.27;5015941;57;1136656;-79
2023/12/30 01:51:14;;;;;;;2.53;1.60;;;;;;;8.34;100.00;99505.62;4996838;57;1136817;-80
2023/12/30 01:56:21;;;;;;;1.92;1.80;;;;;;;8.36;100.00;99493.16;4997356;57;1136657;-78
2023/12/30 02:01:28;;;;;;;2.65;1.98;;;;;;;8.40;100.00;99489.30;5015830;58;1137079;-82
2023/12/30 02:06:34;;;;;;;3.13;1.87;;;;;;;8.45;100.00;99486.61;4996670;57;1136671;-77
2023/12/30 02:11:40;;;;;;;2.73;1.97;;;;;;;8.50;100.00;99479.64;4962666;58;1136996;-81
2023/12/30 02:16:45;;;;;;;8.47;3.23;;;;;;;8.53;100.00;99489.92;4990884;57;1136813;-76
2023/12/30 02:21:52;;;;;;;2.77;1.10;;;;;;;8.58;100.00;99492.98;4916854;56;1136485;-80
2023/12/30 02:26:58;;;;;;;1.53;1.43;;;;;;;8.63;100.00;99501.34;4910340;58;1136595;-79
2023/12/30 02:44:52;;;;;;;0.20;0.20;;;;;;;8.72;100.00;99526.06;5107233;56;47433;-78
2023/12/30 02:49:57;;;;;;;0.10;0.10;;;;;;;6.82;100.00;99593.77;4912914;56;1132546;-77
2023/12/30 02:55:04;;;;;;;0.57;0.20;;;;;;;6.58;100.00;99586.43;4803419;60;1136780;-77
2023/12/30 03:00:11;;;;;;;2.13;0.37;;;;;;;6.43;100.00;99602.88;4784726;60;1136690;-77
2023/12/30 03:05:17;;;;;;;0.33;0.20;;;;;;;6.42;100.00;99577.56;4785427;60;1136735;-76
2023/12/30 03:10:22;;;;;;;0.33;0.33;;;;;;;6.49;100.00;99597.17;4862010;58;1136815;-79
2023/12/30 03:15:28;;;;;;;0.40;0.20;;;;;;;6.45;100.00;99602.77;4884866;58;1136805;-77
2023/12/30 03:20:33;;;;;;;0.20;0.20;;;;;;;6.43;100.00;99605.98;4865281;58;1136727;-77
2023/12/30 03:25:39;;;;;;;0.20;0.20;;;;;;;6.38;100.00;99631.29;4865981;58;1136715;-79
2023/12/30 03:30:45;;;;;;;0.30;0.30;;;;;;;6.34;100.00;99622.80;4929475;57;1136891;-78
2023/12/30 03:35:51;;;;;;;0.30;0.30;;;;;;;6.39;100.00;99620.31;4964052;57;1136915;-75
2023/12/30 03:40:57;;;;;;;0.17;0.17;;;;;;;6.38;100.00;99622.58;4964345;57;1136938;-79
2023/12/30 03:46:02;;;;;;;0.30;0.30;;;;;;;6.38;100.00;99622.58;5010145;57;1137077;-75
2023/12/30 03:51:08;;;;;;;0.53;0.53;;;;;;;6.50;100.00;99645.29;4939732;58;1136797;-76
2023/12/30 03:56:13;;;;;;;0.23;0.23;;;;;;;6.45;100.00;99644.31;4941000;57;1137193;-78
2023/12/30 04:01:19;;;;;;;0.17;0.17;;;;;;;6.37;100.00;99637.49;4977983;58;1136573;-76
2023/12/30 04:06:24;;;;;;;0.30;0.30;;;;;;;6.35;100.00;99634.98;4935735;57;1136795;-76
2023/12/30 04:11:30;;;;;;;0.28;0.28;;;;;;;6.37;100.00;99626.98;4959255;57;1136969;-78
2023/12/30 04:16:35;;;;;;;0.33;0.30;;;;;;;6.38;100.00;99634.39;4978231;57;1136739;-79
2023/12/30 04:21:41;;;;;;;0.72;0.53;;;;;;;6.36;100.00;99630.56;4958309;57;1136746;-77
2023/12/30 04:26:47;;;;;;;1.53;1.00;;;;;;;6.38;100.00;99635.23;4959340;57;1136682;-77
2023/12/30 04:31:53;;;;;;;1.47;0.57;;;;;;;6.43;100.00;99634.86;4978332;57;1136710;-78
2023/12/30 04:36:58;;;;;;;0.57;0.50;;;;;;;6.46;100.00;99634.64;4954825;56;1137465;-77
2023/12/30 04:42:04;;;;;;;1.75;0.42;;;;;;;6.50;100.00;99641.35;4977285;57;1136951;-75
2023/12/30 04:47:10;;;;;;;0.47;0.47;;;;;;;6.56;100.00;99641.74;4970219;57;1136813;-77
2023/12/30 04:52:16;;;;;;;0.50;0.50;;;;;;;6.59;100.00;99640.65;4860243;57;1136558;-79
2023/12/30 04:57:21;;;;;;;0.30;0.30;;;;;;;6.61;100.00;99647.94;4860210;58;1136553;-76
2023/12/30 05:02:27;;;;;;;0.30;0.30;;;;;;;6.61;100.00;99671.59;4999211;56;1136927;-76
2023/12/30 05:07:32;;;;;;;0.60;0.40;;;;;;;6.57;100.00;99660.46;4952495;57;1136903;-78
2023/12/30 05:12:38;;;;;;;1.07;0.40;;;;;;;6.56;100.00;99668.48;4934556;57;1136473;-76
2023/12/30 05:17:44;;;;;;;1.33;0.40;;;;;;;6.55;100.00;99674.69;4934461;57;1136714;-76
2023/12/30 05:22:49;;;;;;;2.27;0.57;;;;;;;6.52;100.00;99676.23;4946632;57;1136616;-76
2023/12/30 05:27:56;;;;;;;0.50;0.50;;;;;;;6.51;100.00;99681.95;4942866;57;1136488;-77
2023/12/30 05:33:01;;;;;;;0.40;0.40;;;;;;;6.51;100.00;99681.95;4945977;56;1136382;-78
2023/12/30 05:38:07;;;;;;;0.47;0.47;;;;;;;6.54;100.00;99669.08;5035196;57;1136895;-78
2023/12/30 05:43:12;;;;;;;3.30;1.10;;;;;;;6.56;100.00;99667.17;4923870;57;1136709;-78
2023/12/30 05:48:18;;;;;;;0.83;0.40;;;;;;;6.58;100.00;99663.93;4922162;58;1136762;-79
2023/12/30 05:53:23;;;;;;;0.30;0.30;;;;;;;6.58;100.00;99664.77;5079326;56;1136742;-76
2023/12/30 05:58:29;;;;;;;0.50;0.50;;;;;;;6.60;100.00;99685.20;5098242;57;1136695;-76
2023/12/30 06:03:35;;;;;;;1.30;0.90;;;;;;;6.62;100.00;99671.95;5079093;56;1136723;-75
2023/12/30 06:08:40;;;;;;;1.63;0.80;;;;;;;6.65;100.00;99709.83;5079261;56;1136847;-79
2023/12/30 06:13:46;;;;;;;0.90;0.60;;;;;;;6.67;100.00;99715.34;5098838;56;1136759;-79
2023/12/30 06:18:51;;;;;;;9.53;2.10;;;;;;;6.70;100.00;99715.11;5081257;56;1136773;-76
2023/12/30 06:23:57;;;;;;;3.70;1.40;;;;;;;6.74;100.00;99711.75;5058858;56;1136853;-79
2023/12/30 06:29:02;;;;;;;8.50;2.25;;;;;;;6.78;100.00;99713.69;5106752;56;1136807;-76
2023/12/30 06:34:09;;;;;;;0.60;0.60;;;;;;;6.81;100.00;99716.09;5164123;55;1136727;-78
2023/12/30 06:39:21;;;;;;;2.03;1.13;;;;;;;6.83;100.00;99724.23;5025223;56;1136400;-79
2023/12/30 06:44:25;;;;;;;5.03;2.20;;;;;;;6.85;100.00;99730.69;5083896;55;1136683;-77
2023/12/30 06:49:30;;;;;;;13.27;3.97;;;;;;;6.86;100.00;99742.87;5098976;56;1136968;-79
2023/12/30 06:54:35;;;;;;;12.20;3.70;;;;;;;6.87;100.00;99742.77;4995711;57;1138821;-77
2023/12/30 06:59:41;;;;;;;1.02;0.68;;;;;;;6.85;100.00;99749.09;5077864;56;1138854;-76
2023/12/30 07:04:46;;;;;;;1.43;0.40;;;;;;;6.77;100.00;99760.62;5097701;56;1136513;-77
2023/12/30 07:09:52;;;;;;;1.57;0.80;;;;;;;6.69;100.00;99771.72;5079212;55;1134575;-79
2023/12/30 07:14:58;;;;;;;1.70;0.80;;;;;;;6.58;100.00;99761.97;5120545;55;1134618;-75
2023/12/30 07:20:04;;;;;;;1.77;0.65;;;;;;;6.52;100.00;99769.48;5185406;56;1134679;-78
2023/12/30 07:25:09;;;;;;;1.35;0.72;;;;;;;6.46;100.00;99773.37;5157512;55;1134512;-78
2023/12/30 07:30:15;;;;;;;3.63;1.20;;;;;;;6.43;100.00;99789.36;5079459;56;1136511;-78
2023/12/30 07:35:22;;;;;;;4.80;1.13;;;;;;;6.41;100.00;99800.47;5099346;56;1136585;-78
2023/12/30 07:40:28;;;;;;;2.83;0.80;;;;;;;6.39;100.00;99817.28;5104257;55;1134721;-76
2023/12/30 07:45:33;;;;;;;2.63;1.17;;;;;;;6.33;100.00;99823.33;4990534;57;1134585;-79
2023/12/30 07:50:39;;;;;;;4.00;1.90;;;;;;;6.31;100.00;99846.23;5098085;56;1136817;-76
2023/12/30 07:55:45;;;;;;;0.87;0.43;;;;;;;6.29;100.00;99831.52;5146177;56;1134600;-76
2023/12/30 08:00:50;;;;;;;2.00;0.50;;;;;;;6.26;100.00;99851.46;5158630;55;1134835;-80
2023/12/30 08:05:56;;;;;;;0.77;0.73;;;;;;;6.18;100.00;99866.42;5184853;55;1134581;-80
2023/12/30 08:11:01;;;;;;;0.87;0.80;;;;;;;6.14;100.00;99880.70;5164463;55;1136970;-77
2023/12/30 08:16:08;;;;;;;0.50;0.50;;;;;;;6.08;100.00;99881.62;5157986;56;1134621;-78
2023/12/30 08:21:13;;;;;;;2.30;0.70;;;;;;;5.99;100.00;99889.64;5140307;56;1134563;-80
2023/12/30 08:26:19;;;;;;;2.63;0.93;;;;;;;5.93;100.00;99889.60;5108139;56;1134437;-76
2023/12/30 08:31:24;;;;;;;3.50;0.70;;;;;;;5.83;100.00;99896.84;5079749;56;1134515;-80
2023/12/30 08:36:30;;;;;;;3.85;1.37;;;;;;;5.74;100.00;99903.56;5078912;56;1134549;-77
2023/12/30 08:41:35;;;;;;;2.73;0.90;;;;;;;5.68;100.00;99914.93;5131425;55;1134539;-80
2023/12/30 08:46:41;;;;;;;1.30;0.60;;;;;;;5.61;100.00;99932.41;5118397;55;1134725;-78
2023/12/30 08:51:46;;;;;;;0.83;0.83;;;;;;;5.65;100.00;99935.67;5078925;55;1134676;-80
2023/12/30 08:56:53;;;;;;;0.93;0.80;;;;;;;5.76;100.00;99942.35;5167131;55;1134279;-81
2023/12/30 09:02:00;;;;;;;3.80;1.00;;;;;;;5.80;100.00;99953.49;5168532;55;1134612;-79
2023/12/30 09:07:05;;;;;;;3.02;0.98;;;;;;;5.76;100.00;99973.00;5148464;55;1134476;-79
2023/12/30 09:12:11;;;;;;;7.70;3.08;;;;;;;5.72;100.00;99985.47;5184926;56;1134539;-76
2023/12/30 09:17:16;;;;;;;4.90;2.57;;;;;;;5.73;100.00;99978.44;5160824;56;1134569;-78
2023/12/30 09:22:22;;;;;;;3.37;2.07;;;;;;;5.73;100.00;99977.13;5048178;57;1134630;-77
2023/12/30 09:27:28;;;;;;;2.10;0.72;;;;;;;5.68;100.00;99977.89;5183938;55;1134690;-80
2023/12/30 09:32:33;;;;;;;1.00;1.00;;;;;;;5.68;100.00;99982.67;5113925;56;1134649;-79
2023/12/30 09:37:39;;;;;;;2.23;1.17;;;;;;;5.70;100.00;99989.97;5080321;56;1134565;-82
2023/12/30 09:42:49;;;;;;;2.50;1.00;;;;;;;5.76;100.00;99997.92;5090472;55;1134576;-81
2023/12/30 09:47:56;;;;;;;2.80;0.60;;;;;;;5.80;100.00;100008.12;5185199;56;1134519;-78
2023/12/30 09:53:02;;;;;;;3.60;1.13;;;;;;;5.89;100.00;100004.06;5163843;55;1136562;-76
2023/12/30 09:58:08;;;;;;;1.03;0.53;;;;;;;5.93;100.00;100005.55;5161263;55;1136545;-79
2023/12/30 10:03:14;;;;;;;2.27;0.87;;;;;;;5.98;100.00;100003.44;5184828;55;1143336;-80
2023/12/30 10:08:22;;;;;;;5.53;1.30;;;;;;;6.03;100.00;99999.20;5131684;56;1136960;-78
2023/12/30 10:13:27;;;;;;;6.57;2.37;;;;;;;6.06;100.00;100007.72;5011721;57;1134468;-78
2023/12/30 10:18:34;;;;;;;9.73;2.63;;;;;;;6.24;100.00;100013.53;5055424;56;1136703;-81
2023/12/30 10:23:40;;;;;;;1.03;0.70;;;;;;;6.24;100.00;100013.53;5094750;56;1136624;-79
2023/12/30 10:28:47;;;;;;;3.60;0.90;;;;;;;6.36;100.00;100015.31;5056612;56;1136615;-78
2023/12/30 10:33:55;;;;;;;3.97;1.30;;;;;;;6.45;100.00;100018.61;5078969;56;1136494;-79
2023/12/30 10:39:03;;;;;;;9.13;1.97;;;;;;;6.51;100.00;100029.19;5086329;57;1136527;-79
2023/12/30 10:44:08;;;;;;;1.95;0.82;;;;;;;6.52;100.00;100038.75;5150627;55;1136488;-79
2023/12/30 10:49:17;;;;;;;7.40;1.40;;;;;;;6.60;100.00;100041.67;5164210;55;1136679;-79
2023/12/30 10:54:28;;;;;;;17.03;7.17;;;;;;;6.70;100.00;100047.53;5165927;55;1136685;-80
2023/12/30 10:59:38;;;;;;;5.13;1.50;;;;;;;6.79;100.00;100049.14;5130892;55;1139028;-79
2023/12/30 11:04:45;;;;;;;2.93;1.17;;;;;;;6.84;100.00;100061.50;5112171;55;1136530;-80
2023/12/30 11:09:51;;;;;;;4.93;1.37;;;;;;;6.83;100.00;100051.93;5164563;54;1136502;-78
2023/12/30 11:14:58;;;;;;;3.33;0.80;;;;;;;6.85;100.00;100070.59;5040190;57;1136711;-84
2023/12/30 11:20:30;;;;;;;3.03;1.27;;;;;;;6.82;100.00;100073.91;5122379;56;1145938;-82
2023/12/30 11:25:46;;;;;;;2.75;0.80;;;;;;;6.82;100.00;100077.84;4934118;56;1136494;-79
2023/12/30 11:31:04;;;;;;;6.93;1.03;;;;;;;6.79;100.00;100091.19;5078457;55;1136879;-80
2023/12/30 11:36:12;;;;;;;3.45;1.00;;;;;;;6.76;100.00;100079.09;5130266;56;1136721;-84
2023/12/30 11:41:17;;;;;;;2.15;1.22;;;;;;;6.74;100.00;100094.13;5144393;55;1136627;-81
2023/12/30 11:46:23;;;;;;;7.43;1.70;;;;;;;6.74;100.00;100094.13;5153784;55;1136916;-81
2023/12/30 11:51:31;;;;;;;3.77;1.17;;;;;;;6.74;100.00;100088.87;5165212;55;1136447;-70
2023/12/30 11:56:37;;;;;;;1.33;0.53;;;;;;;6.74;100.00;100102.00;5185052;55;1136803;-77
2023/12/30 12:01:45;;;;;;;1.63;1.03;;;;;;;6.73;100.00;100099.48;5164966;55;1136838;-79
2023/12/30 12:06:50;;;;;;;4.37;0.93;;;;;;;6.71;100.00;100102.24;5129066;55;1136755;-86
2023/12/30 12:11:56;;;;;;;2.97;1.30;;;;;;;6.74;100.00;100096.75;5121831;55;1136410;-86
2023/12/30 12:17:09;;;;;;;6.47;1.77;;;;;;;6.73;100.00;100102.95;5091003;56;1136847;-85
2023/12/30 12:22:15;;;;;;;3.85;0.90;;;;;;;6.74;100.00;100094.59;5091835;56;1136580;-78
2023/12/30 12:27:25;;;;;;;3.10;1.37;;;;;;;6.73;100.00;100104.27;5103306;56;1136996;-87
2023/12/30 12:32:30;;;;;;;2.43;1.13;;;;;;;6.71;100.00;100106.19;5090511;55;1136846;-80
2023/12/30 12:37:37;;;;;;;6.07;1.03;;;;;;;6.68;100.00;100107.23;5091211;56;1136859;-80
2023/12/30 12:42:42;;;;;;;5.43;1.13;;;;;;;6.66;100.00;100097.29;5105612;56;1136561;-79
2023/12/30 12:47:48;;;;;;;8.67;2.37;;;;;;;6.68;100.00;100099.81;5081095;56;1136816;-77
2023/12/30 12:52:53;;;;;;;4.77;2.03;;;;;;;6.65;100.00;100098.70;5081462;56;1136693;-79
2023/12/30 12:57:59;;;;;;;4.53;0.90;;;;;;;7.07;100.00;100102.79;5100104;56;1136579;-78
2023/12/30 13:03:05;;;;;;;4.37;1.70;;;;;;;7.45;100.00;100105.84;5106396;55;1138430;-79
2023/12/30 13:08:11;;;;;;;2.57;1.07;;;;;;;7.61;100.00;100106.42;5202522;55;1138801;-78
2023/12/30 13:13:16;;;;;;;9.20;2.35;;;;;;;7.87;100.00;100103.21;5130200;56;1136748;-79
2023/12/30 13:18:23;;;;;;;7.37;2.37;;;;;;;7.44;100.00;100108.94;5108600;56;1193979;-79
2023/12/30 13:23:29;;;;;;;4.90;1.30;;;;;;;7.05;100.00;100105.52;5105416;55;1136547;-78
2023/12/30 13:28:34;;;;;;;6.27;1.67;;;;;;;6.74;100.00;100112.52;5111035;56;1136875;-78
2023/12/30 13:33:42;;;;;;;6.90;1.20;;;;;;;6.57;100.00;100107.59;5129771;56;1136840;-77
2023/12/30 13:38:59;;;;;;;3.87;0.80;;;;;;;6.47;100.00;100113.08;5109704;56;1136847;-80
2023/12/30 13:43:58;;;;;;;4.87;1.33;;;;;;;6.40;100.00;100125.80;5107306;56;1136834;-82
2023/12/30 13:54:24;;;;;;;14.35;5.55;;;;;;;6.41;100.00;100139.77;5002444;56;1138995;-80
2023/12/30 13:59:25;;;;;;;7.27;2.87;;;;;;;6.43;100.00;100155.78;5176136;55;1138854;-79
2023/12/30 14:04:33;;;;;;;11.73;2.22;;;;;;;6.45;100.00;100160.93;5185351;55;1136747;-81
2023/12/30 14:09:50;;;;;;;8.53;2.10;;;;;;;6.45;100.00;100167.03;5205265;55;1138779;-79
2023/12/30 14:14:54;;;;;;;4.40;1.67;;;;;;;6.44;100.00;100176.32;5184068;55;1136841;-80
2023/12/30 14:19:57;;;;;;;9.50;1.83;;;;;;;6.42;100.00;100183.45;5184792;55;1136732;-81
2023/12/30 14:25:11;;;;;;;8.27;1.17;;;;;;;6.39;100.00;100196.34;5197483;55;1136274;-80
2023/12/30 14:30:11;;;;;;;8.60;2.12;;;;;;;6.36;100.00;100201.80;5045915;56;1136654;-80
2023/12/30 14:35:17;;;;;;;12.98;3.98;;;;;;;6.34;100.00;100201.05;5045735;56;1136825;-80
2023/12/30 14:40:22;;;;;;;8.55;2.20;;;;;;;6.31;100.00;100212.59;5072689;56;1138816;-79
2023/12/30 14:45:28;;;;;;;8.40;2.93;;;;;;;6.30;100.00;100213.53;5109576;56;1138687;-80
2023/12/30 14:50:34;;;;;;;11.20;1.92;;;;;;;6.30;100.00;100214.84;5109072;56;1138527;-81
2023/12/30 14:55:39;;;;;;;7.03;1.13;;;;;;;6.28;100.00;100197.02;5143365;56;1139194;-80
2023/12/30 15:00:45;;;;;;;7.30;2.90;;;;;;;6.26;100.00;100209.41;5185243;55;1136869;-80
2023/12/30 15:05:51;;;;;;;6.03;1.60;;;;;;;6.26;100.00;100217.79;5154921;55;1137113;-79
2023/12/30 15:10:57;;;;;;;5.77;1.70;;;;;;;6.26;100.00;100217.79;5200123;56;1234942;-79
2023/12/30 15:16:03;;;;;;;10.43;2.70;;;;;;;6.26;100.00;100206.78;5178464;55;1136742;-81
2023/12/30 15:21:09;;;;;;;16.17;2.43;;;;;;;6.20;100.00;100200.63;5162204;55;1138737;-81
2023/12/30 15:26:14;;;;;;;7.33;1.87;;;;;;;6.16;100.00;100208.80;5192251;55;1138767;-79
2023/12/30 15:31:21;;;;;;;7.70;2.27;;;;;;;6.12;100.00;100220.42;5173954;55;1136834;-81
2023/12/30 15:36:27;;;;;;;13.33;4.10;;;;;;;6.10;100.00;100224.96;5176808;55;1136820;-79
2023/12/30 15:41:32;;;;;;;8.53;4.00;;;;;;;6.08;100.00;100224.21;5141340;55;1138578;-77
2023/12/30 15:46:38;;;;;;;18.47;4.67;;;;;;;6.15;100.00;100241.24;5112016;56;1136670;-76
2023/12/30 15:51:44;;;;;;;21.93;7.20;;;;;;;6.09;100.00;100225.90;5119567;55;1138619;-78
2023/12/30 15:56:51;;;;;;;10.68;2.02;;;;;;;6.09;100.00;100242.49;5086722;56;1139039;-77
2023/12/30 16:01:56;;;;;;;6.83;2.17;;;;;;;6.07;100.00;100239.59;5154628;55;1138888;-79
2023/12/30 16:07:02;;;;;;;22.23;9.30;;;;;;;6.03;100.00;100238.09;5139704;55;1136807;-76
2023/12/30 16:12:09;;;;;;;15.70;4.33;;;;;;;6.00;100.00;100237.81;5123360;55;1138619;-80
2023/12/30 16:17:15;;;;;;;8.60;2.27;;;;;;;5.97;100.00;100237.99;5110566;56;1138972;-81
2023/12/30 16:22:20;;;;;;;13.93;3.77;;;;;;;5.91;100.00;100241.87;5089897;56;1136823;-82
2023/12/30 16:27:26;;;;;;;12.43;3.45;;;;;;;5.93;100.00;100247.02;5090976;56;1139133;-80
2023/12/30 16:32:31;;;;;;;5.28;1.95;;;;;;;5.95;100.00;100262.21;5093904;55;1256447;-80
2023/12/30 16:37:37;;;;;;;11.30;2.70;;;;;;;5.96;100.00;100275.68;5108563;55;1136619;-80
2023/12/30 16:42:42;;;;;;;5.90;2.08;;;;;;;5.98;100.00;100273.34;5089295;56;1138590;-80
2023/12/30 16:47:48;;;;;;;12.73;3.30;;;;;;;5.99;100.00;100281.59;5099069;56;1137520;-80
2023/12/30 16:52:53;;;;;;;10.40;2.75;;;;;;;6.00;100.00;100283.28;5149019;55;1138899;-79
2023/12/30 16:57:59;;;;;;;10.00;2.63;;;;;;;6.00;100.00;100286.37;5166541;55;1139051;-82
2023/12/30 17:03:05;;;;;;;18.90;5.12;;;;;;;6.02;100.00;100295.00;5117161;55;1138805;-78
2023/12/30 17:08:12;;;;;;;10.68;2.77;;;;;;;6.03;100.00;100302.41;5194284;55;1138751;-78
2023/12/30 17:13:18;;;;;;;13.33;4.03;;;;;;;6.01;100.00;100309.06;5104405;56;1138648;-80
2023/12/30 17:18:23;;;;;;;23.97;8.07;;;;;;;5.97;100.00;100314.96;5163597;55;1138618;-78
2023/12/30 17:23:29;;;;;;;11.15;3.87;;;;;;;5.97;100.00;100325.93;5163468;55;1138705;-79
2023/12/30 17:28:34;;;;;;;96.83;31.87;;;;;;;5.95;100.00;100327.36;5146773;55;1138911;-80
2023/12/30 17:33:40;;;;;;;18.50;6.03;;;;;;;5.93;100.00;100337.58;5098477;56;1140838;-86
2023/12/30 17:38:45;;;;;;;17.60;6.43;;;;;;;5.93;100.00;100340.20;5093924;56;1138679;-81
2023/12/30 17:43:51;;;;;;;19.77;6.77;;;;;;;5.93;100.00;100349.39;5152640;56;1138800;-80
2023/12/30 17:48:57;;;;;;;19.50;7.10;;;;;;;5.91;100.00;100342.07;5117837;55;1138792;-77
2023/12/30 17:54:03;;;;;;;28.00;8.70;;;;;;;5.94;100.00;100347.14;5113948;56;1138915;-78
2023/12/30 17:59:09;;;;;;;16.83;4.67;;;;;;;5.93;100.00;100351.55;5164872;55;1138812;-80
2023/12/30 18:04:14;;;;;;;10.63;3.37;;;;;;;5.93;100.00;100352.86;5171164;55;1139100;-80
2023/12/30 18:09:20;;;;;;;15.00;3.47;;;;;;;5.94;100.00;100368.14;5178657;55;1138731;-80
2023/12/30 18:14:25;;;;;;;9.70;3.20;;;;;;;5.93;100.00;100373.86;5116177;56;1138786;-79
2023/12/30 18:19:31;;;;;;;10.63;4.00;;;;;;;5.95;100.00;100383.80;5123371;56;1136421;-77
2023/12/30 18:24:36;;;;;;;8.93;3.57;;;;;;;5.94;100.00;100380.80;5108204;56;1139137;-78
2023/12/30 18:29:42;;;;;;;15.33;2.90;;;;;;;5.95;100.00;100390.83;5175949;55;1136766;-77
2023/12/30 18:34:47;;;;;;;5.77;2.30;;;;;;;5.95;100.00;100398.23;5194881;55;1139013;-78
2023/12/30 18:39:53;;;;;;;9.17;2.53;;;;;;;5.94;100.00;100397.86;5168577;56;1136627;-78
2023/12/30 18:44:59;;;;;;;4.73;2.57;;;;;;;5.94;100.00;100408.36;5178364;55;1136709;-80
2023/12/30 18:50:05;;;;;;;11.20;3.07;;;;;;;5.93;100.00;100413.70;5137830;55;1136803;-81
2023/12/30 18:55:11;;;;;;;6.33;2.70;;;;;;;5.92;100.00;100413.31;5090282;56;1138550;-78
2023/12/30 19:00:23;;;;;;;9.37;3.90;;;;;;;5.89;100.00;100423.53;5109531;56;1136551;-78
2023/12/30 19:05:26;;;;;;;10.18;2.33;;;;;;;5.86;100.00;100430.70;5094480;56;1223642;-79
2023/12/30 19:10:31;;;;;;;12.77;2.70;;;;;;;5.80;100.00;100417.96;5156754;55;1138727;-78
2023/12/30 19:15:37;;;;;;;12.18;3.47;;;;;;;5.76;100.00;100418.60;5164539;55;1139149;-80
2023/12/30 19:20:43;;;;;;;16.55;3.77;;;;;;;5.70;100.00;100423.36;5150010;55;1138786;-77
2023/12/30 19:25:48;;;;;;;17.05;5.47;;;;;;;5.63;100.00;100438.17;5165364;55;1140877;-80
2023/12/30 19:30:55;;;;;;;15.13;4.92;;;;;;;5.61;100.00;100437.88;5097577;56;1139052;-79
2023/12/30 19:36:01;;;;;;;15.00;4.05;;;;;;;5.63;100.00;100442.56;5138914;55;1139307;-79
2023/12/30 19:41:06;;;;;;;13.65;4.33;;;;;;;5.65;100.00;100445.95;5154575;55;1139478;-80
2023/12/30 19:46:12;;;;;;;18.07;5.90;;;;;;;5.67;100.00;100447.98;5144685;55;1140798;-79
2023/12/30 19:51:17;;;;;;;28.05;9.00;;;;;;;5.69;100.00;100436.09;5178770;55;1139094;-79
2023/12/30 19:56:24;;;;;;;16.80;6.10;;;;;;;5.69;100.00;100437.41;5195381;55;1138790;-80
2023/12/30 20:01:32;;;;;;;17.40;4.93;;;;;;;5.71;100.00;100446.04;5128346;55;1138885;-79
2023/12/30 20:06:40;;;;;;;13.08;4.25;;;;;;;5.71;100.00;100456.06;5102102;56;1140750;-82
2023/12/30 20:11:45;;;;;;;17.77;5.80;;;;;;;5.69;100.00;100455.31;5113668;56;1138703;-79
2023/12/30 20:16:50;;;;;;;9.13;3.30;;;;;;;5.73;100.00;100461.23;5115760;55;1141308;-80
2023/12/30 20:21:56;;;;;;;14.80;3.57;;;;;;;5.70;100.00;100467.50;5111300;56;1136633;-79
2023/12/30 20:27:03;;;;;;;11.70;2.90;;;;;;;5.71;100.00;100481.00;5120937;56;1138797;-79
2023/12/30 20:32:08;;;;;;;16.17;4.80;;;;;;;5.73;100.00;100492.25;5090073;56;1140815;-81
2023/12/30 20:37:15;;;;;;;28.73;8.60;;;;;;;5.71;100.00;100494.12;5087576;56;1138731;-79
2023/12/30 20:42:22;;;;;;;18.50;6.63;;;;;;;5.69;100.00;100488.11;5150860;55;1138690;-78
2023/12/30 20:47:28;;;;;;;11.50;3.67;;;;;;;5.71;100.00;100488.87;5157350;55;1138660;-71
2023/12/30 20:52:35;;;;;;;14.57;3.40;;;;;;;5.70;100.00;100491.11;5085027;56;1140861;-74
2023/12/30 20:57:42;;;;;;;9.17;3.63;;;;;;;5.69;100.00;100491.20;5191662;55;1141018;-72
2023/12/30 21:02:48;;;;;;;11.57;3.77;;;;;;;5.72;100.00;100496.27;5171898;55;1138815;-74
2023/12/30 21:07:54;;;;;;;11.80;4.23;;;;;;;5.77;100.00;100495.55;5178022;55;1140786;-73
2023/12/30 21:12:59;;;;;;;16.13;5.00;;;;;;;5.76;100.00;100490.77;5188668;55;1138715;-72
2023/12/30 21:18:05;;;;;;;12.13;5.50;;;;;;;5.72;100.00;100497.59;5200858;55;1138690;-74
2023/12/30 21:23:11;;;;;;;275.30;106.83;;;;;;;5.66;100.00;100506.64;5150592;56;1138960;-80
2023/12/30 21:28:16;;;;;;;63.63;26.03;;;;;;;5.64;100.00;100513.79;5065336;57;1145314;-78
2023/12/30 21:33:22;;;;;;;64.50;25.77;;;;;;;5.66;100.00;100521.08;5091712;56;1143075;-79
2023/12/30 21:38:27;;;;;;;188.03;61.40;;;;;;;5.74;100.00;100524.13;5033876;56;1143152;-78
2023/12/30 21:43:34;;;;;;;247.65;83.15;;;;;;;5.80;100.00;100522.47;5119538;56;1144979;-77
2023/12/30 21:48:41;;;;;;;91.37;33.13;;;;;;;5.85;100.00;100527.43;5124961;56;1143002;-78
2023/12/30 21:53:47;;;;;;;171.40;61.77;;;;;;;5.87;100.00;100518.53;5138767;56;1140999;-78
2023/12/30 21:58:53;;;;;;;284.10;106.33;;;;;;;5.82;100.00;100515.79;5116919;56;1142866;-77
2023/12/30 22:03:58;;;;;;;52.10;20.25;;;;;;;5.73;100.00;100526.83;5177800;56;1145174;-78
2023/12/30 22:09:04;;;;;;;25.87;11.33;;;;;;;5.56;100.00;100530.41;5091648;56;1140736;-78
2023/12/30 22:14:10;;;;;;;22.17;8.13;;;;;;;5.38;100.00;100530.98;5092827;56;1140675;-79
2023/12/30 22:19:16;;;;;;;28.17;12.53;;;;;;;5.21;100.00;100521.89;5139187;56;1140790;-77
2023/12/30 22:24:22;;;;;;;28.20;13.53;;;;;;;5.09;100.00;100525.19;5047456;56;1143161;-77
2023/12/30 22:29:27;;;;;;;23.13;10.57;;;;;;;4.97;100.00;100525.41;5140943;55;1141261;-80
2023/12/30 22:34:33;;;;;;;15.83;7.35;;;;;;;4.89;100.00;100528.42;5159229;55;1140900;-78
2023/12/30 22:39:39;;;;;;;46.67;21.57;;;;;;;4.88;100.00;100529.84;5197773;56;1139515;-79
2023/12/30 22:44:44;;;;;;;24.37;10.93;;;;;;;4.85;100.00;100521.68;5091547;56;1142851;-78
2023/12/30 22:49:50;;;;;;;15.30;6.67;;;;;;;4.79;100.00;100525.92;5080134;56;1140841;-77
2023/12/30 22:54:55;;;;;;;16.40;5.90;;;;;;;4.76;100.00;100533.95;5148131;55;1138758;-79
2023/12/30 23:00:02;;;;;;;16.30;5.73;;;;;;;4.70;100.00;100536.06;5102903;56;1249278;-79
2023/12/30 23:05:08;;;;;;;17.83;5.57;;;;;;;4.64;100.00;100531.14;5107308;56;1138609;-78
2023/12/30 23:10:14;;;;;;;15.53;5.43;;;;;;;4.58;100.00;100537.07;5125599;55;1138842;-78
2023/12/30 23:15:20;;;;;;;18.10;5.83;;;;;;;4.53;100.00;100527.31;5108693;55;1138670;-80
2023/12/30 23:20:25;;;;;;;11.37;4.97;;;;;;;4.48;100.00;100525.39;5106206;56;1138650;-78
2023/12/30 23:25:31;;;;;;;20.10;6.10;;;;;;;4.44;100.00;100528.24;5074854;56;1138811;-79
2023/12/30 23:30:36;;;;;;;15.97;4.80;;;;;;;4.40;100.00;100531.51;5027862;57;1138776;-81